CheckWX is a tool to help pilots better visualize weather data.  It is not intended as a substitute for an official pre-flight weather briefing.

22:16:51 UTC

KRAC METAR
Batten International Airport
Racine, Wisconsin, USA
Current

24 mins ago

KRAC 152153Z AUTO 21013G27KT 10SM CLR 32/18 A2994 RMK AO2 PK WND 20031/2123 SLP134 T03220178
Observed
Jul-15 @ 21:53 UTC
Wind
  • 210° at 13 KTS
  • Gusting to 27 KTS
Visibility
10 SM
Flight Rules
VFR
Cloud Levels
  • Clear skies
Temperature
32°C / 90°F
Dewpoint
18°C / 64°F
Heat Index
33°C / 92°F
Humidity
43%
Altimeter
29.94" Hg
Pressure
1013.92 hPa
Previous

1 hour ago

KRAC 152053Z AUTO 22014G23KT 10SM CLR 33/19 A2996 RMK AO2 PK WND 23026/2026 SLP141 T03280189 56019
Observed
Jul-15 @ 20:53 UTC
Wind
  • 220° at 14 KTS
  • Gusting to 23 KTS
Visibility
10 SM
Flight Rules
VFR
Cloud Levels
  • Clear skies
Temperature
33°C / 91°F
Dewpoint
19°C / 66°F
Heat Index
34°C / 94°F
Humidity
44%
Altimeter
29.96" Hg
Pressure
1014.52 hPa
Previous

2 hours ago

KRAC 151953Z AUTO 23010G22KT 200V270 10SM CLR 33/19 A2998 RMK AO2 SLP147 T03280189
Observed
Jul-15 @ 19:53 UTC
Wind
  • 230° at 10 KTS
  • Gusting to 22 KTS
Visibility
10 SM
Flight Rules
VFR
Cloud Levels
  • Clear skies
Temperature
33°C / 91°F
Dewpoint
19°C / 66°F
Heat Index
34°C / 94°F
Humidity
44%
Altimeter
29.98" Hg
Pressure
1015.22 hPa